Time;durP1;ratioP1;P1;durP2;ratioP2;P2;SDS_P1;SDS_P2;PMS_P1;PMS_P2;Temp;Humidity;BMP_temperature;BMP_pressure;BME280_temperature;BME280_humidity;BME280_pressure;Samples;Min_cycle;Max_cycle;Signal;HPM_P1;HPM_P2
2023/04/17 00:01:12;;;;;;;3.42;2.33;;;;;;;;;;5011958;28;20491;-69
2023/04/17 00:03:38;;;;;;;4.40;2.85;;;;;;;;;;5012340;28;20042;-69
2023/04/17 00:06:05;;;;;;;2.60;2.30;;;;;;;;;;5012333;28;20042;-68
2023/04/17 00:08:32;;;;;;;5.20;2.92;;;;;;;;;;5012133;28;20026;-68
2023/04/17 00:10:59;;;;;;;3.45;2.60;;;;;;;;;;5012219;28;20450;-68
2023/04/17 00:13:25;;;;;;;3.00;2.47;;;;;;;;;;5012076;28;20040;-69
2023/04/17 00:15:51;;;;;;;3.88;2.80;;;;;;;;;;5011780;28;20400;-68
2023/04/17 00:18:17;;;;;;;3.58;2.65;;;;;;;;;;4995612;28;20156;-68
2023/04/17 00:20:44;;;;;;;3.40;2.78;;;;;;;;;;4995499;28;20032;-68
2023/04/17 00:23:10;;;;;;;6.60;2.72;;;;;;;;;;5018669;28;20060;-69
2023/04/17 00:25:36;;;;;;;3.28;2.25;;;;;;;;;;5033850;28;20083;-68
2023/04/17 00:28:03;;;;;;;4.18;2.80;;;;;;;;;;5034000;28;20051;-69
2023/04/17 00:30:29;;;;;;;2.95;2.15;;;;;;;;;;5033225;28;20041;-68
2023/04/17 00:32:55;;;;;;;3.70;2.45;;;;;;;;;;5016263;28;20026;-68
2023/04/17 00:35:22;;;;;;;3.95;2.60;;;;;;;;;;5032694;28;20086;-68
2023/04/17 00:37:48;;;;;;;4.05;2.90;;;;;;;;;;5033570;28;20029;-68
2023/04/17 00:40:14;;;;;;;3.38;2.50;;;;;;;;;;5033769;28;20037;-68
2023/04/17 00:42:41;;;;;;;3.92;2.38;;;;;;;;;;5033325;28;20414;-69
2023/04/17 00:45:09;;;;;;;3.33;2.47;;;;;;;;;;5033459;28;20075;-68
2023/04/17 00:47:36;;;;;;;3.70;2.40;;;;;;;;;;5033415;28;20510;-68
2023/04/17 00:50:03;;;;;;;5.90;4.40;;;;;;;;;;5033229;28;20025;-69
2023/04/17 00:52:29;;;;;;;5.55;2.40;;;;;;;;;;5033163;28;20013;-68
2023/04/17 00:54:57;;;;;;;4.88;2.88;;;;;;;;;;5033292;28;20033;-68
2023/04/17 00:57:24;;;;;;;3.75;2.60;;;;;;;;;;5033298;28;20352;-69
2023/04/17 00:59:50;;;;;;;2.80;2.28;;;;;;;;;;5037538;28;20492;-69
2023/04/17 01:02:17;;;;;;;2.65;2.13;;;;;;;;;;5052891;28;20045;-69
2023/04/17 01:04:44;;;;;;;3.60;2.50;;;;;;;;;;5053200;28;20017;-68
2023/04/17 01:07:10;;;;;;;3.92;2.75;;;;;;;;;;5052834;28;20025;-68
2023/04/17 01:09:37;;;;;;;3.17;2.42;;;;;;;;;;5053232;28;20031;-68
2023/04/17 01:12:19;;;;;;;2.85;2.38;;;;;;;;;;5052941;28;20389;-68
2023/04/17 01:14:46;;;;;;;3.28;2.20;;;;;;;;;;5052695;28;20025;-68
2023/04/17 01:17:17;;;;;;;3.83;2.50;;;;;;;;;;5052683;28;20032;-68
2023/04/17 01:19:44;;;;;;;4.80;2.75;;;;;;;;;;5052776;28;20054;-68
2023/04/17 01:22:10;;;;;;;5.45;3.45;;;;;;;;;;5052438;28;20025;-68
2023/04/17 01:24:37;;;;;;;5.85;2.78;;;;;;;;;;5052630;28;20033;-68
2023/04/17 01:27:03;;;;;;;3.67;2.72;;;;;;;;;;5052307;28;20028;-68
2023/04/17 01:29:30;;;;;;;4.10;2.80;;;;;;;;;;5052345;28;20029;-67
2023/04/17 01:31:56;;;;;;;3.47;2.90;;;;;;;;;;5051225;28;20037;-68
2023/04/17 01:34:23;;;;;;;3.78;2.60;;;;;;;;;;5052512;28;20037;-68
2023/04/17 01:36:50;;;;;;;3.42;2.35;;;;;;;;;;5052283;28;20052;-68
2023/04/17 01:39:17;;;;;;;4.07;2.42;;;;;;;;;;5052295;28;20025;-68
2023/04/17 01:41:43;;;;;;;3.00;2.53;;;;;;;;;;5052066;28;20082;-68
2023/04/17 01:44:10;;;;;;;3.25;2.53;;;;;;;;;;5052379;28;20478;-68
2023/04/17 01:46:36;;;;;;;3.35;2.58;;;;;;;;;;5052248;28;20037;-68
2023/04/17 01:49:02;;;;;;;3.60;2.67;;;;;;;;;;5052202;28;20389;-68
2023/04/17 01:51:30;;;;;;;3.95;2.47;;;;;;;;;;5051021;28;20027;-68
2023/04/17 01:53:56;;;;;;;4.38;2.80;;;;;;;;;;5052035;28;20025;-68
2023/04/17 01:56:22;;;;;;;3.80;2.65;;;;;;;;;;5051760;28;20478;-68
2023/04/17 01:58:50;;;;;;;5.80;3.03;;;;;;;;;;5052474;28;20029;-68
2023/04/17 02:01:16;;;;;;;3.03;2.70;;;;;;;;;;5051736;28;20025;-67
2023/04/17 02:03:42;;;;;;;6.80;3.22;;;;;;;;;;5052051;28;20035;-68
2023/04/17 02:06:09;;;;;;;3.35;2.60;;;;;;;;;;5052303;28;20021;-68
2023/04/17 02:08:35;;;;;;;4.00;2.58;;;;;;;;;;5052126;28;20036;-68
2023/04/17 02:11:02;;;;;;;2.78;2.42;;;;;;;;;;5051772;28;20029;-68
2023/04/17 02:13:28;;;;;;;3.88;2.70;;;;;;;;;;5052096;28;20086;-68
2023/04/17 02:15:54;;;;;;;3.83;2.67;;;;;;;;;;5051872;28;20396;-68
2023/04/17 02:18:20;;;;;;;3.97;2.75;;;;;;;;;;5052230;28;20035;-68
2023/04/17 02:20:47;;;;;;;4.57;2.45;;;;;;;;;;5050518;28;20070;-68
2023/04/17 02:23:13;;;;;;;2.88;2.35;;;;;;;;;;5052099;28;20024;-68
2023/04/17 02:25:39;;;;;;;3.42;2.83;;;;;;;;;;5051743;28;20021;-68
2023/04/17 02:28:06;;;;;;;3.20;2.60;;;;;;;;;;5051702;28;20385;-68
2023/04/17 02:30:32;;;;;;;3.53;2.90;;;;;;;;;;5051636;28;20047;-68
2023/04/17 02:32:58;;;;;;;3.55;2.85;;;;;;;;;;5051740;28;20025;-68
2023/04/17 02:35:26;;;;;;;3.35;2.45;;;;;;;;;;5052081;28;20029;-68
2023/04/17 02:37:52;;;;;;;3.78;2.75;;;;;;;;;;5051589;28;20512;-68
2023/04/17 02:40:19;;;;;;;3.60;2.65;;;;;;;;;;5051376;28;20021;-68
2023/04/17 02:42:45;;;;;;;5.32;3.00;;;;;;;;;;5051475;28;20413;-68
2023/04/17 02:45:11;;;;;;;4.88;3.05;;;;;;;;;;5051502;28;20212;-68
2023/04/17 02:47:38;;;;;;;4.28;2.78;;;;;;;;;;5051929;28;20029;-68
2023/04/17 02:50:05;;;;;;;3.40;2.75;;;;;;;;;;5051477;28;20535;-68
2023/04/17 02:52:32;;;;;;;3.40;3.08;;;;;;;;;;5051512;28;20393;-68
2023/04/17 02:54:58;;;;;;;3.63;2.83;;;;;;;;;;5051400;28;20029;-68
2023/04/17 02:57:25;;;;;;;3.28;2.70;;;;;;;;;;5051433;28;20378;-68
2023/04/17 02:59:51;;;;;;;6.03;2.88;;;;;;;;;;5054614;28;20017;-68
2023/04/17 03:02:21;;;;;;;4.15;3.42;;;;;;;;;;5055211;28;20031;-68
2023/04/17 03:04:50;;;;;;;4.22;3.05;;;;;;;;;;5055211;28;20381;-68
2023/04/17 03:07:18;;;;;;;3.80;3.08;;;;;;;;;;5055144;28;20029;-68
2023/04/17 03:09:45;;;;;;;5.45;3.50;;;;;;;;;;5054955;28;20490;-68
2023/04/17 03:12:13;;;;;;;3.97;3.30;;;;;;;;;;5055123;28;20029;-68
2023/04/17 03:14:40;;;;;;;4.07;3.10;;;;;;;;;;5055017;28;20031;-68
2023/04/17 03:17:06;;;;;;;4.38;3.40;;;;;;;;;;5055461;28;20028;-68
2023/04/17 03:19:33;;;;;;;3.95;3.28;;;;;;;;;;5054953;28;20062;-68
2023/04/17 03:22:00;;;;;;;4.28;2.80;;;;;;;;;;5054806;28;20041;-68
2023/04/17 03:24:27;;;;;;;3.85;2.88;;;;;;;;;;5054694;28;20029;-68
2023/04/17 03:26:53;;;;;;;3.65;2.88;;;;;;;;;;5054832;28;20029;-68
2023/04/17 03:29:19;;;;;;;5.25;2.70;;;;;;;;;;5054902;28;20025;-68
2023/04/17 03:31:46;;;;;;;4.18;2.95;;;;;;;;;;5054695;28;20052;-68
2023/04/17 03:34:12;;;;;;;4.82;3.20;;;;;;;;;;5054806;28;20021;-68
2023/04/17 03:36:39;;;;;;;4.18;2.72;;;;;;;;;;5054899;28;20382;-68
2023/04/17 03:39:05;;;;;;;4.80;3.10;;;;;;;;;;5054713;28;20025;-67
2023/04/17 03:41:31;;;;;;;5.22;3.50;;;;;;;;;;5054669;28;20036;-68
2023/04/17 03:43:58;;;;;;;7.43;3.25;;;;;;;;;;5054498;28;20029;-68
2023/04/17 03:46:24;;;;;;;5.28;3.75;;;;;;;;;;5054452;28;20021;-68
2023/04/17 03:48:50;;;;;;;3.95;2.90;;;;;;;;;;5054541;28;20032;-68
2023/04/17 03:51:16;;;;;;;3.60;3.05;;;;;;;;;;5054346;28;20021;-68
2023/04/17 03:53:43;;;;;;;4.43;3.45;;;;;;;;;;5054389;28;20031;-68
2023/04/17 03:56:09;;;;;;;4.75;3.30;;;;;;;;;;5054387;28;20021;-68
2023/04/17 03:58:35;;;;;;;4.43;3.33;;;;;;;;;;5054186;28;20393;-67
2023/04/17 04:01:27;;;;;;;5.90;3.42;;;;;;;;;;5012208;28;20078;-68
2023/04/17 04:03:56;;;;;;;3.83;3.17;;;;;;;;;;5012394;28;20091;-68
2023/04/17 04:06:22;;;;;;;5.60;3.70;;;;;;;;;;5012296;28;20034;-68
2023/04/17 04:08:48;;;;;;;3.30;2.80;;;;;;;;;;5012518;28;20034;-66
2023/04/17 04:11:15;;;;;;;4.32;2.78;;;;;;;;;;5010767;28;20561;-67
2023/04/17 04:13:41;;;;;;;4.75;3.50;;;;;;;;;;5012196;28;20072;-67
2023/04/17 04:16:08;;;;;;;4.05;3.10;;;;;;;;;;5012227;28;20040;-67
2023/04/17 04:18:35;;;;;;;4.38;2.90;;;;;;;;;;5012222;28;20038;-68
2023/04/17 04:21:02;;;;;;;3.30;2.65;;;;;;;;;;5011885;28;20037;-67
2023/04/17 04:23:29;;;;;;;4.15;3.05;;;;;;;;;;5011800;28;20036;-68
2023/04/17 04:25:55;;;;;;;4.07;3.20;;;;;;;;;;5012120;28;20034;-68
2023/04/17 04:28:22;;;;;;;3.80;3.10;;;;;;;;;;5011834;28;20026;-67
2023/04/17 04:30:50;;;;;;;3.45;2.75;;;;;;;;;;5011549;28;20058;-68
2023/04/17 04:33:21;;;;;;;4.25;3.03;;;;;;;;;;5011936;28;20052;-68
2023/04/17 04:35:47;;;;;;;4.00;2.97;;;;;;;;;;5011427;28;20030;-68
2023/04/17 04:38:14;;;;;;;3.40;2.72;;;;;;;;;;5021276;28;20043;-68
2023/04/17 04:40:44;;;;;;;5.10;3.20;;;;;;;;;;5033416;28;20487;-68
2023/04/17 04:43:10;;;;;;;3.95;3.13;;;;;;;;;;5033350;28;20037;-68
2023/04/17 04:45:36;;;;;;;8.70;3.33;;;;;;;;;;5033656;28;20029;-68
2023/04/17 04:48:02;;;;;;;5.85;3.25;;;;;;;;;;5033656;28;20029;-68
2023/04/17 04:50:29;;;;;;;4.68;3.35;;;;;;;;;;5033389;28;20031;-68
2023/04/17 04:52:56;;;;;;;4.93;3.83;;;;;;;;;;5033381;28;20497;-68
2023/04/17 04:55:23;;;;;;;5.00;3.15;;;;;;;;;;5033355;28;20037;-68
2023/04/17 04:57:52;;;;;;;4.10;3.15;;;;;;;;;;5033276;28;20017;-68
2023/04/17 05:00:18;;;;;;;4.43;3.33;;;;;;;;;;5041634;28;20039;-68
2023/04/17 05:02:45;;;;;;;5.60;3.65;;;;;;;;;;5052933;28;20047;-68
2023/04/17 05:05:11;;;;;;;8.00;3.33;;;;;;;;;;5052767;28;20389;-68
2023/04/17 05:07:37;;;;;;;5.55;3.30;;;;;;;;;;5053005;28;20113;-68
2023/04/17 05:10:05;;;;;;;5.03;3.13;;;;;;;;;;5053138;28;20017;-67
2023/04/17 05:12:31;;;;;;;8.63;4.05;;;;;;;;;;5053149;28;20024;-68
2023/04/17 05:14:58;;;;;;;4.30;3.13;;;;;;;;;;5052841;28;20025;-68
2023/04/17 05:17:24;;;;;;;5.57;3.65;;;;;;;;;;5052681;28;20078;-68
2023/04/17 05:19:51;;;;;;;6.05;3.40;;;;;;;;;;5052651;28;20060;-68
2023/04/17 05:22:17;;;;;;;5.43;3.50;;;;;;;;;;5052318;28;20047;-68
2023/04/17 05:24:43;;;;;;;7.20;3.67;;;;;;;;;;5052582;28;20025;-68
2023/04/17 05:27:10;;;;;;;7.60;3.33;;;;;;;;;;5052501;28;20029;-68
2023/04/17 05:29:36;;;;;;;4.22;3.15;;;;;;;;;;5052725;28;20037;-68
2023/04/17 05:32:02;;;;;;;3.92;3.30;;;;;;;;;;5052634;28;20027;-68
2023/04/17 05:34:49;;;;;;;6.15;3.20;;;;;;;;;;5010350;28;20425;-68
2023/04/17 05:37:16;;;;;;;6.20;3.40;;;;;;;;;;5010601;28;20042;-68
2023/04/17 05:39:42;;;;;;;7.70;3.67;;;;;;;;;;5010675;28;20141;-68
2023/04/17 05:42:08;;;;;;;5.00;3.45;;;;;;;;;;5010574;28;20045;-68
2023/04/17 05:44:34;;;;;;;8.68;3.60;;;;;;;;;;5010402;28;20026;-68
2023/04/17 05:47:02;;;;;;;5.18;3.67;;;;;;;;;;5010350;28;20030;-68
2023/04/17 05:49:28;;;;;;;9.93;3.78;;;;;;;;;;5010132;28;20030;-68
2023/04/17 05:51:55;;;;;;;4.88;3.60;;;;;;;;;;5010265;28;20038;-68
2023/04/17 05:54:21;;;;;;;5.05;3.70;;;;;;;;;;5010337;28;20054;-68
2023/04/17 05:56:48;;;;;;;14.45;3.85;;;;;;;;;;5010257;28;20040;-68
2023/04/17 05:59:15;;;;;;;14.23;3.83;;;;;;;;;;5010541;28;20037;-68
2023/04/17 06:01:42;;;;;;;14.43;5.30;;;;;;;;;;4990559;28;20038;-68
2023/04/17 06:04:08;;;;;;;18.42;6.53;;;;;;;;;;4990333;28;20570;-68
2023/04/17 06:06:35;;;;;;;8.00;4.80;;;;;;;;;;4990349;28;20045;-68
2023/04/17 06:09:03;;;;;;;9.40;3.90;;;;;;;;;;4990597;28;20470;-68
2023/04/17 06:11:29;;;;;;;6.45;3.75;;;;;;;;;;5010652;28;20391;-68
2023/04/17 06:13:56;;;;;;;8.70;4.70;;;;;;;;;;5051402;28;20547;-68
2023/04/17 06:16:22;;;;;;;9.85;4.45;;;;;;;;;;5051767;28;20488;-68
2023/04/17 06:18:49;;;;;;;10.68;5.10;;;;;;;;;;5046346;28;20017;-67
2023/04/17 06:21:15;;;;;;;10.93;4.05;;;;;;;;;;5051471;28;20029;-68
2023/04/17 06:23:42;;;;;;;10.68;4.68;;;;;;;;;;5051144;28;20039;-68
2023/04/17 06:26:09;;;;;;;7.60;4.53;;;;;;;;;;5050257;28;20028;-68
2023/04/17 06:28:36;;;;;;;7.93;5.38;;;;;;;;;;5050916;28;20039;-68
2023/04/17 06:31:02;;;;;;;8.15;4.85;;;;;;;;;;5051256;28;20047;-68
2023/04/17 06:33:28;;;;;;;7.28;4.22;;;;;;;;;;5052211;28;20025;-68
2023/04/17 06:35:55;;;;;;;10.20;4.90;;;;;;;;;;5034500;28;20025;-68
2023/04/17 06:38:41;;;;;;;6.45;4.47;;;;;;;;;;5002989;28;20092;-68
2023/04/17 06:41:07;;;;;;;10.30;4.07;;;;;;;;;;5010281;28;20038;-68
2023/04/17 06:43:34;;;;;;;7.85;4.40;;;;;;;;;;5020000;28;20128;-68
2023/04/17 06:46:00;;;;;;;13.00;4.30;;;;;;;;;;5005346;28;20037;-68
2023/04/17 06:48:26;;;;;;;8.40;4.15;;;;;;;;;;5006916;28;20040;-68
2023/04/17 06:50:53;;;;;;;6.47;3.78;;;;;;;;;;5011050;28;20515;-68
2023/04/17 06:53:20;;;;;;;9.90;3.90;;;;;;;;;;5010602;28;20021;-67
2023/04/17 06:55:46;;;;;;;6.43;4.13;;;;;;;;;;5011657;28;20091;-68
2023/04/17 06:58:13;;;;;;;13.70;4.90;;;;;;;;;;5012374;28;20030;-68
2023/04/17 07:00:39;;;;;;;6.75;3.60;;;;;;;;;;5011769;28;20392;-68
2023/04/17 07:03:06;;;;;;;4.80;3.10;;;;;;;;;;5012310;28;20056;-67
2023/04/17 07:05:32;;;;;;;4.15;3.50;;;;;;;;;;5012476;28;20025;-68
2023/04/17 07:07:58;;;;;;;6.63;3.30;;;;;;;;;;5012356;28;20076;-68
2023/04/17 07:10:25;;;;;;;6.03;3.33;;;;;;;;;;5012281;28;20036;-66
2023/04/17 07:12:51;;;;;;;8.00;3.53;;;;;;;;;;5012628;28;20040;-66
2023/04/17 07:15:17;;;;;;;6.28;2.90;;;;;;;;;;5018230;28;20498;-66
2023/04/17 07:17:44;;;;;;;3.95;2.67;;;;;;;;;;5050168;28;20033;-67
2023/04/17 07:20:10;;;;;;;4.50;2.70;;;;;;;;;;5054217;28;20033;-66
2023/04/17 07:22:37;;;;;;;3.78;2.90;;;;;;;;;;5052863;28;20045;-67
2023/04/17 07:25:04;;;;;;;3.90;2.78;;;;;;;;;;5054249;28;20021;-67
2023/04/17 07:27:30;;;;;;;2.67;2.20;;;;;;;;;;5054007;28;20029;-67
2023/04/17 07:29:57;;;;;;;5.30;2.25;;;;;;;;;;5053357;28;20505;-66
2023/04/17 07:32:23;;;;;;;2.40;2.20;;;;;;;;;;5053948;28;20070;-66
2023/04/17 07:34:50;;;;;;;2.20;2.00;;;;;;;;;;5053883;28;20025;-67
2023/04/17 07:37:16;;;;;;;2.15;2.00;;;;;;;;;;5053861;28;20086;-66
2023/04/17 07:39:43;;;;;;;2.35;2.10;;;;;;;;;;5053783;28;20022;-67
2023/04/17 07:42:10;;;;;;;2.63;2.30;;;;;;;;;;5050571;28;20455;-66
2023/04/17 07:44:37;;;;;;;2.20;2.00;;;;;;;;;;5059127;28;20021;-67
2023/04/17 07:47:03;;;;;;;2.03;1.90;;;;;;;;;;5074325;28;20028;-66
2023/04/17 07:49:30;;;;;;;1.63;1.52;;;;;;;;;;5054601;28;20024;-66
2023/04/17 07:51:56;;;;;;;3.25;1.83;;;;;;;;;;5053684;28;20029;-66
2023/04/17 07:54:23;;;;;;;2.00;1.80;;;;;;;;;;5057734;28;20024;-67
2023/04/17 07:56:49;;;;;;;6.43;1.90;;;;;;;;;;5054431;28;20021;-67
2023/04/17 07:59:16;;;;;;;2.00;1.80;;;;;;;;;;5051677;28;20512;-67
2023/04/17 08:01:42;;;;;;;1.92;1.70;;;;;;;;;;5050000;28;20025;-67
2023/04/17 08:04:09;;;;;;;1.95;1.65;;;;;;;;;;5053360;28;20477;-67
2023/04/17 08:06:35;;;;;;;1.75;1.60;;;;;;;;;;5052999;28;20025;-67
2023/04/17 08:09:02;;;;;;;4.50;1.65;;;;;;;;;;5053509;28;20486;-67
2023/04/17 08:11:28;;;;;;;1.42;1.33;;;;;;;;;;5053467;28;20033;-67
2023/04/17 08:13:55;;;;;;;4.25;1.50;;;;;;;;;;5053280;28;20490;-67
2023/04/17 08:16:21;;;;;;;1.75;1.63;;;;;;;;;;5051829;28;20021;-67
2023/04/17 08:18:47;;;;;;;5.43;1.88;;;;;;;;;;5053298;28;20040;-65
2023/04/17 08:21:14;;;;;;;1.67;1.50;;;;;;;;;;5053101;28;20021;-68
2023/04/17 08:23:40;;;;;;;1.33;1.33;;;;;;;;;;5052886;28;20036;-67
2023/04/17 08:26:07;;;;;;;4.18;1.60;;;;;;;;;;5052174;28;20024;-67
2023/04/17 08:28:33;;;;;;;1.70;1.50;;;;;;;;;;5052023;28;20029;-68
2023/04/17 08:30:59;;;;;;;3.78;1.30;;;;;;;;;;5051505;28;20510;-66
2023/04/17 08:33:26;;;;;;;1.60;1.50;;;;;;;;;;5052709;28;20067;-67
2023/04/17 08:35:52;;;;;;;3.55;1.60;;;;;;;;;;5052070;28;20021;-67
2023/04/17 08:38:18;;;;;;;2.65;1.50;;;;;;;;;;5052427;28;20070;-67
2023/04/17 08:40:50;;;;;;;2.83;1.52;;;;;;;;;;5050801;28;20033;-66
2023/04/17 08:43:18;;;;;;;3.17;1.50;;;;;;;;;;5052178;28;20037;-67
2023/04/17 08:45:55;;;;;;;2.67;1.42;;;;;;;;;;5053024;28;20021;-66
2023/04/17 08:48:22;;;;;;;2.28;1.50;;;;;;;;;;5052653;28;20411;-67
2023/04/17 08:50:50;;;;;;;1.13;1.08;;;;;;;;;;5052304;28;20025;-67
2023/04/17 08:53:17;;;;;;;5.03;1.35;;;;;;;;;;5052605;28;20025;-67
2023/04/17 08:55:44;;;;;;;8.18;1.70;;;;;;;;;;5052137;28;20538;-68
2023/04/17 08:58:11;;;;;;;1.67;1.25;;;;;;;;;;5052167;28;20032;-68
2023/04/17 09:00:41;;;;;;;1.73;1.38;;;;;;;;;;5051939;28;20028;-66
2023/04/17 09:03:09;;;;;;;1.40;1.30;;;;;;;;;;5052084;28;20036;-67
2023/04/17 09:05:37;;;;;;;1.33;1.27;;;;;;;;;;5052629;28;20021;-66
2023/04/17 09:08:14;;;;;;;1.20;1.10;;;;;;;;;;5051935;28;20029;-66
2023/04/17 09:10:42;;;;;;;1.40;1.30;;;;;;;;;;5049000;28;20496;-68
2023/04/17 09:13:09;;;;;;;1.42;1.33;;;;;;;;;;5052020;28;20025;-67
2023/04/17 09:15:36;;;;;;;3.40;1.23;;;;;;;;;;5052083;28;20393;-67
2023/04/17 09:18:03;;;;;;;1.13;1.00;;;;;;;;;;5052325;28;20035;-67
2023/04/17 09:20:29;;;;;;;1.75;1.20;;;;;;;;;;5051907;28;20025;-67
2023/04/17 09:23:00;;;;;;;2.85;1.40;;;;;;;;;;5051640;28;20037;-67
2023/04/17 09:25:27;;;;;;;1.45;1.35;;;;;;;;;;5051978;28;20027;-67
2023/04/17 09:27:54;;;;;;;2.38;1.48;;;;;;;;;;5051628;28;20031;-65
2023/04/17 09:30:21;;;;;;;1.20;1.10;;;;;;;;;;5051541;28;20047;-66
2023/04/17 09:32:47;;;;;;;1.17;1.08;;;;;;;;;;5051603;28;20074;-66
2023/04/17 09:35:24;;;;;;;1.33;1.13;;;;;;;;;;5051902;28;20047;-67
2023/04/17 09:37:50;;;;;;;1.40;1.30;;;;;;;;;;5051375;28;20543;-66
2023/04/17 09:40:21;;;;;;;1.30;1.20;;;;;;;;;;5051494;28;20037;-66
2023/04/17 09:42:53;;;;;;;3.08;2.10;;;;;;;;;;5051174;28;20056;-67
2023/04/17 09:45:21;;;;;;;1.58;1.48;;;;;;;;;;5051499;28;20029;-67
2023/04/17 09:47:47;;;;;;;1.58;1.48;;;;;;;;;;5051606;28;20025;-67
2023/04/17 09:50:20;;;;;;;1.73;1.50;;;;;;;;;;5051876;28;20074;-67
2023/04/17 09:52:47;;;;;;;2.65;2.45;;;;;;;;;;5031636;28;20021;-67
2023/04/17 09:55:15;;;;;;;1.25;1.15;;;;;;;;;;5042128;28;20040;-67
2023/04/17 09:57:41;;;;;;;2.65;1.40;;;;;;;;;;5049803;28;20478;-67
2023/04/17 10:00:13;;;;;;;1.40;1.30;;;;;;;;;;5051111;28;20037;-67
2023/04/17 10:02:43;;;;;;;2.15;2.00;;;;;;;;;;5051125;28;20047;-67
2023/04/17 10:05:13;;;;;;;1.58;1.38;;;;;;;;;;5050671;28;20055;-66
2023/04/17 10:07:40;;;;;;;2.65;1.70;;;;;;;;;;5032104;28;20029;-67
2023/04/17 10:10:10;;;;;;;1.30;1.10;;;;;;;;;;5031488;28;20113;-67
2023/04/17 10:12:38;;;;;;;1.95;1.30;;;;;;;;;;5031875;28;20025;-67
2023/04/17 10:15:06;;;;;;;2.45;1.35;;;;;;;;;;5031646;28;20021;-67
2023/04/17 10:17:33;;;;;;;2.85;1.48;;;;;;;;;;5031694;28;20018;-67
2023/04/17 10:20:16;;;;;;;1.65;1.55;;;;;;;;;;5031582;28;20032;-67
2023/04/17 10:22:48;;;;;;;1.50;1.40;;;;;;;;;;5031480;28;20033;-67
2023/04/17 10:25:14;;;;;;;1.70;1.60;;;;;;;;;;5031549;28;20032;-67
2023/04/17 10:27:40;;;;;;;2.92;1.65;;;;;;;;;;5031904;28;20029;-67
2023/04/17 10:30:09;;;;;;;1.40;1.30;;;;;;;;;;5031573;28;20041;-67
2023/04/17 10:32:36;;;;;;;1.63;1.20;;;;;;;;;;5031290;28;20490;-67
2023/04/17 10:35:05;;;;;;;7.07;1.83;;;;;;;;;;5031468;28;20022;-67
2023/04/17 10:37:47;;;;;;;1.50;1.40;;;;;;;;;;5031655;28;20025;-67
2023/04/17 10:40:19;;;;;;;1.33;1.23;;;;;;;;;;5031380;28;20022;-67
2023/04/17 10:43:06;;;;;;;3.13;1.60;;;;;;;;;;5031822;28;20030;-68
2023/04/17 10:45:51;;;;;;;1.65;1.20;;;;;;;;;;5031830;28;20032;-67
2023/04/17 10:48:21;;;;;;;1.42;1.33;;;;;;;;;;5031665;28;20028;-67
2023/04/17 10:50:48;;;;;;;1.45;1.35;;;;;;;;;;5031521;28;20513;-67
2023/04/17 10:53:33;;;;;;;1.50;1.40;;;;;;;;;;5031235;28;20029;-67
2023/04/17 10:55:59;;;;;;;2.35;1.33;;;;;;;;;;5031255;28;20385;-67
2023/04/17 10:58:25;;;;;;;1.50;1.40;;;;;;;;;;5031287;28;20045;-67
2023/04/17 11:00:52;;;;;;;4.38;1.60;;;;;;;;;;5044522;28;20381;-67
2023/04/17 11:03:21;;;;;;;1.40;1.35;;;;;;;;;;5051019;28;20039;-67
2023/04/17 11:05:48;;;;;;;1.58;1.45;;;;;;;;;;5051427;28;20017;-67
2023/04/17 11:08:15;;;;;;;1.52;1.42;;;;;;;;;;5051122;28;20044;-67
2023/04/17 11:10:41;;;;;;;3.55;1.40;;;;;;;;;;5051010;28;20059;-67
2023/04/17 11:13:07;;;;;;;3.90;1.40;;;;;;;;;;5051042;28;20033;-67
2023/04/17 11:15:34;;;;;;;4.80;1.40;;;;;;;;;;5051160;28;20035;-67
2023/04/17 11:18:02;;;;;;;2.22;1.40;;;;;;;;;;5050973;28;20035;-67
2023/04/17 11:20:31;;;;;;;1.60;1.48;;;;;;;;;;5053008;28;20405;-66
2023/04/17 11:23:05;;;;;;;3.53;1.40;;;;;;;;;;5054691;28;20113;-67
2023/04/17 11:25:32;;;;;;;5.30;1.88;;;;;;;;;;5054700;28;20028;-67
2023/04/17 11:28:00;;;;;;;1.63;1.50;;;;;;;;;;5053525;28;20025;-66
2023/04/17 11:30:29;;;;;;;2.22;1.70;;;;;;;;;;5054325;28;20044;-66
2023/04/17 11:32:59;;;;;;;4.70;1.53;;;;;;;;;;5053172;28;20029;-67
2023/04/17 11:35:30;;;;;;;8.70;1.70;;;;;;;;;;5051459;28;20037;-66
2023/04/17 11:38:07;;;;;;;2.15;1.80;;;;;;;;;;5053655;28;20047;-67
2023/04/17 11:40:33;;;;;;;1.83;1.60;;;;;;;;;;5054283;28;20013;-67
2023/04/17 11:43:05;;;;;;;3.72;1.73;;;;;;;;;;5054069;28;20029;-67
2023/04/17 11:45:33;;;;;;;5.47;1.60;;;;;;;;;;5057648;28;20020;-67
2023/04/17 11:47:59;;;;;;;2.40;1.50;;;;;;;;;;5055148;28;20035;-67
2023/04/17 11:50:29;;;;;;;1.50;1.40;;;;;;;;;;5053898;28;20030;-67
2023/04/17 11:52:57;;;;;;;1.90;1.80;;;;;;;;;;5053875;28;20037;-67
2023/04/17 11:55:29;;;;;;;3.40;2.20;;;;;;;;;;5053900;28;20028;-65
2023/04/17 11:57:56;;;;;;;4.43;1.80;;;;;;;;;;5052587;28;20490;-67
2023/04/17 12:00:26;;;;;;;3.33;1.90;;;;;;;;;;5052810;28;20432;-67
2023/04/17 12:02:53;;;;;;;1.98;1.88;;;;;;;;;;5054087;28;20028;-67
2023/04/17 12:05:19;;;;;;;1.75;1.58;;;;;;;;;;5053654;28;20021;-67
2023/04/17 12:07:46;;;;;;;1.70;1.60;;;;;;;;;;5054002;28;20032;-67
2023/04/17 12:10:12;;;;;;;3.88;1.70;;;;;;;;;;5053190;28;20470;-67
2023/04/17 12:12:38;;;;;;;1.80;1.70;;;;;;;;;;5053667;28;20043;-67
2023/04/17 12:15:05;;;;;;;2.38;2.17;;;;;;;;;;5053576;28;20021;-67
2023/04/17 12:17:31;;;;;;;2.50;1.85;;;;;;;;;;5053438;28;20093;-66
2023/04/17 12:20:02;;;;;;;2.25;2.00;;;;;;;;;;5052900;28;20503;-67
2023/04/17 12:22:29;;;;;;;1.88;1.77;;;;;;;;;;5053502;28;20028;-67
2023/04/17 12:24:55;;;;;;;2.20;2.00;;;;;;;;;;5051830;28;20021;-66
2023/04/17 12:27:21;;;;;;;1.90;1.70;;;;;;;;;;5055089;28;20032;-67
2023/04/17 12:29:48;;;;;;;1.95;1.58;;;;;;;;;;5053396;28;20052;-67
2023/04/17 12:32:15;;;;;;;1.98;1.85;;;;;;;;;;5051963;28;20036;-66
2023/04/17 12:34:41;;;;;;;3.47;1.60;;;;;;;;;;5051277;28;20025;-66
2023/04/17 12:37:08;;;;;;;2.67;1.80;;;;;;;;;;5054581;28;20037;-66
2023/04/17 12:39:34;;;;;;;2.58;2.35;;;;;;;;;;5053363;28;20029;-66
2023/04/17 12:42:00;;;;;;;2.45;2.25;;;;;;;;;;5053105;28;20013;-66
2023/04/17 12:44:27;;;;;;;2.97;2.42;;;;;;;;;;5053005;28;20029;-66
2023/04/17 12:46:53;;;;;;;2.42;2.17;;;;;;;;;;5052171;28;20029;-66
2023/04/17 12:49:19;;;;;;;3.58;2.58;;;;;;;;;;5052984;28;20020;-66
2023/04/17 12:51:45;;;;;;;2.50;2.30;;;;;;;;;;5052979;28;20496;-66
2023/04/17 12:54:12;;;;;;;4.13;2.20;;;;;;;;;;5053167;28;20036;-66
2023/04/17 12:56:38;;;;;;;2.42;2.22;;;;;;;;;;5052743;28;20029;-66
2023/04/17 12:59:04;;;;;;;2.58;2.20;;;;;;;;;;5052815;28;20025;-67
2023/04/17 13:01:31;;;;;;;2.40;2.20;;;;;;;;;;5052479;28;20021;-66
2023/04/17 13:03:57;;;;;;;3.35;2.10;;;;;;;;;;5052470;28;20025;-67
2023/04/17 13:06:23;;;;;;;2.20;2.10;;;;;;;;;;5052651;28;20027;-66
2023/04/17 13:08:50;;;;;;;2.40;2.00;;;;;;;;;;5051509;28;20033;-67
2023/04/17 13:11:16;;;;;;;2.75;2.13;;;;;;;;;;5053026;28;20021;-67
2023/04/17 13:13:42;;;;;;;2.20;2.00;;;;;;;;;;5052099;28;20045;-68
2023/04/17 13:16:09;;;;;;;2.17;2.08;;;;;;;;;;5052389;28;20479;-67
2023/04/17 13:18:36;;;;;;;2.60;2.40;;;;;;;;;;5050563;28;21563;-67
2023/04/17 13:21:02;;;;;;;2.40;2.20;;;;;;;;;;5045747;28;20025;-66
2023/04/17 13:23:29;;;;;;;2.28;2.00;;;;;;;;;;5050362;28;20043;-67
2023/04/17 13:25:55;;;;;;;2.42;2.17;;;;;;;;;;5051271;28;20023;-66
2023/04/17 13:28:21;;;;;;;4.28;2.00;;;;;;;;;;5051282;28;20029;-66
2023/04/17 13:30:48;;;;;;;4.13;1.63;;;;;;;;;;5048992;28;20102;-66
2023/04/17 13:33:14;;;;;;;2.00;1.50;;;;;;;;;;5050967;28;20060;-67
2023/04/17 13:35:40;;;;;;;2.28;1.70;;;;;;;;;;5047524;28;20024;-66
2023/04/17 13:38:07;;;;;;;1.70;1.60;;;;;;;;;;5051364;28;20081;-66
2023/04/17 13:40:33;;;;;;;1.83;1.73;;;;;;;;;;5049831;28;20482;-67
2023/04/17 13:42:59;;;;;;;3.03;1.98;;;;;;;;;;5051024;28;20025;-66
2023/04/17 13:45:26;;;;;;;1.60;1.50;;;;;;;;;;5051244;28;20070;-67
2023/04/17 13:47:52;;;;;;;3.28;1.80;;;;;;;;;;5051017;28;20395;-66
2023/04/17 13:50:19;;;;;;;2.90;1.90;;;;;;;;;;5050706;28;20024;-66
2023/04/17 13:52:45;;;;;;;1.90;1.70;;;;;;;;;;5050164;28;20037;-66
2023/04/17 13:55:13;;;;;;;3.50;1.90;;;;;;;;;;5050312;28;20025;-67
2023/04/17 13:57:39;;;;;;;5.75;2.10;;;;;;;;;;5048977;28;20027;-66
2023/04/17 14:00:06;;;;;;;8.30;2.08;;;;;;;;;;5051233;28;20039;-66
2023/04/17 14:02:32;;;;;;;2.97;2.13;;;;;;;;;;5051068;28;20508;-66
2023/04/17 14:04:59;;;;;;;2.63;2.00;;;;;;;;;;5050397;28;20031;-65
2023/04/17 14:07:26;;;;;;;2.30;1.95;;;;;;;;;;5050337;28;20367;-67
2023/04/17 14:09:52;;;;;;;2.53;2.08;;;;;;;;;;5051462;28;20019;-65
2023/04/17 14:12:20;;;;;;;2.45;2.00;;;;;;;;;;5048663;28;20048;-66
2023/04/17 14:14:46;;;;;;;2.22;1.80;;;;;;;;;;5031119;28;20021;-66
2023/04/17 14:17:13;;;;;;;2.35;1.85;;;;;;;;;;5030669;28;20029;-66
2023/04/17 14:19:39;;;;;;;4.72;2.15;;;;;;;;;;5030186;28;20095;-66
2023/04/17 14:22:05;;;;;;;2.20;2.00;;;;;;;;;;5030522;28;20023;-66
2023/04/17 14:24:32;;;;;;;3.20;2.15;;;;;;;;;;5045488;28;20033;-66
2023/04/17 14:26:58;;;;;;;2.20;1.88;;;;;;;;;;5050060;28;20024;-66
2023/04/17 14:29:24;;;;;;;2.03;1.83;;;;;;;;;;5050618;28;20029;-66
2023/04/17 14:31:51;;;;;;;3.35;1.90;;;;;;;;;;5049996;28;20047;-66
2023/04/17 14:34:18;;;;;;;2.72;2.20;;;;;;;;;;5050624;28;20486;-66
2023/04/17 14:36:44;;;;;;;3.17;1.80;;;;;;;;;;5050275;28;20093;-66
2023/04/17 14:39:10;;;;;;;5.25;2.22;;;;;;;;;;5050342;28;20033;-66
2023/04/17 14:41:37;;;;;;;3.63;2.45;;;;;;;;;;5050484;28;20390;-65
2023/04/17 14:44:03;;;;;;;2.60;2.00;;;;;;;;;;5050271;28;20018;-65